sensor_id;sensor_type;location;lat;lon;timestamp;P1;durP1;ratioP1;P2;durP2;ratioP2
51288;SDS011;37372;52.294;5.152;2024-01-30T00:00:26;23.25;;;12.75;;
51288;SDS011;37372;52.294;5.152;2024-01-30T00:02:56;26.17;;;13.75;;
51288;SDS011;37372;52.294;5.152;2024-01-30T00:05:43;25.63;;;13.13;;
51288;SDS011;37372;52.294;5.152;2024-01-30T00:08:09;26.83;;;14.43;;
51288;SDS011;37372;52.294;5.152;2024-01-30T00:10:44;25.45;;;13.32;;
51288;SDS011;37372;52.294;5.152;2024-01-30T00:13:10;24.63;;;12.43;;
51288;SDS011;37372;52.294;5.152;2024-01-30T00:15:49;23.85;;;13.77;;
51288;SDS011;37372;52.294;5.152;2024-01-30T00:18:14;25.67;;;13.43;;
51288;SDS011;37372;52.294;5.152;2024-01-30T00:20:42;24.80;;;13.50;;
51288;SDS011;37372;52.294;5.152;2024-01-30T00:23:08;25.23;;;12.65;;
51288;SDS011;37372;52.294;5.152;2024-01-30T00:25:56;25.27;;;12.80;;
51288;SDS011;37372;52.294;5.152;2024-01-30T00:28:31;28.83;;;14.00;;
51288;SDS011;37372;52.294;5.152;2024-01-30T00:31:29;23.35;;;12.50;;
51288;SDS011;37372;52.294;5.152;2024-01-30T00:33:56;24.17;;;13.25;;
51288;SDS011;37372;52.294;5.152;2024-01-30T00:36:22;28.57;;;12.73;;
51288;SDS011;37372;52.294;5.152;2024-01-30T00:38:47;24.43;;;12.67;;
51288;SDS011;37372;52.294;5.152;2024-01-30T00:41:22;23.52;;;12.85;;
51288;SDS011;37372;52.294;5.152;2024-01-30T00:44:13;23.33;;;12.53;;
51288;SDS011;37372;52.294;5.152;2024-01-30T00:46:53;21.50;;;12.15;;
51288;SDS011;37372;52.294;5.152;2024-01-30T00:49:29;26.80;;;13.13;;
51288;SDS011;37372;52.294;5.152;2024-01-30T00:51:56;26.92;;;12.10;;
51288;SDS011;37372;52.294;5.152;2024-01-30T00:54:21;26.17;;;12.57;;
51288;SDS011;37372;52.294;5.152;2024-01-30T00:56:47;21.93;;;12.67;;
51288;SDS011;37372;52.294;5.152;2024-01-30T00:59:12;22.57;;;12.40;;
51288;SDS011;37372;52.294;5.152;2024-01-30T01:01:47;23.45;;;11.80;;
51288;SDS011;37372;52.294;5.152;2024-01-30T01:04:27;23.48;;;11.50;;
51288;SDS011;37372;52.294;5.152;2024-01-30T01:06:56;23.90;;;11.70;;
51288;SDS011;37372;52.294;5.152;2024-01-30T01:09:23;21.37;;;11.33;;
51288;SDS011;37372;52.294;5.152;2024-01-30T01:11:53;24.75;;;11.88;;
51288;SDS011;37372;52.294;5.152;2024-01-30T01:14:18;23.50;;;11.35;;
51288;SDS011;37372;52.294;5.152;2024-01-30T01:16:46;21.63;;;11.90;;
51288;SDS011;37372;52.294;5.152;2024-01-30T01:19:12;20.37;;;11.70;;
51288;SDS011;37372;52.294;5.152;2024-01-30T01:21:56;25.13;;;11.48;;
51288;SDS011;37372;52.294;5.152;2024-01-30T01:24:23;21.63;;;11.80;;
51288;SDS011;37372;52.294;5.152;2024-01-30T01:26:49;23.58;;;11.60;;
51288;SDS011;37372;52.294;5.152;2024-01-30T01:29:14;21.47;;;10.63;;
51288;SDS011;37372;52.294;5.152;2024-01-30T01:32:01;21.45;;;11.00;;
51288;SDS011;37372;52.294;5.152;2024-01-30T01:34:27;19.80;;;11.67;;
51288;SDS011;37372;52.294;5.152;2024-01-30T01:37:01;21.65;;;11.05;;
51288;SDS011;37372;52.294;5.152;2024-01-30T01:39:44;20.23;;;11.23;;
51288;SDS011;37372;52.294;5.152;2024-01-30T01:42:10;21.45;;;11.38;;
51288;SDS011;37372;52.294;5.152;2024-01-30T01:44:44;23.67;;;10.57;;
51288;SDS011;37372;52.294;5.152;2024-01-30T01:47:09;17.93;;;10.50;;
51288;SDS011;37372;52.294;5.152;2024-01-30T01:49:35;20.15;;;10.27;;
51288;SDS011;37372;52.294;5.152;2024-01-30T01:52:14;19.02;;;10.27;;
51288;SDS011;37372;52.294;5.152;2024-01-30T01:54:41;19.33;;;10.80;;
51288;SDS011;37372;52.294;5.152;2024-01-30T01:57:09;21.23;;;10.60;;
51288;SDS011;37372;52.294;5.152;2024-01-30T01:59:36;20.05;;;11.25;;
51288;SDS011;37372;52.294;5.152;2024-01-30T02:02:08;19.70;;;10.27;;
51288;SDS011;37372;52.294;5.152;2024-01-30T02:04:40;19.75;;;10.60;;
51288;SDS011;37372;52.294;5.152;2024-01-30T02:07:15;19.08;;;9.95;;
51288;SDS011;37372;52.294;5.152;2024-01-30T02:09:45;19.70;;;11.07;;
51288;SDS011;37372;52.294;5.152;2024-01-30T02:12:10;21.83;;;10.37;;
51288;SDS011;37372;52.294;5.152;2024-01-30T02:14:45;20.37;;;10.20;;
51288;SDS011;37372;52.294;5.152;2024-01-30T02:17:14;19.13;;;10.50;;
51288;SDS011;37372;52.294;5.152;2024-01-30T02:19:53;20.23;;;10.43;;
51288;SDS011;37372;52.294;5.152;2024-01-30T02:22:19;17.70;;;10.17;;
51288;SDS011;37372;52.294;5.152;2024-01-30T02:25:01;21.83;;;10.65;;
51288;SDS011;37372;52.294;5.152;2024-01-30T02:27:27;17.13;;;9.43;;
51288;SDS011;37372;52.294;5.152;2024-01-30T02:29:53;18.75;;;10.52;;
51288;SDS011;37372;52.294;5.152;2024-01-30T02:32:27;21.23;;;10.57;;
51288;SDS011;37372;52.294;5.152;2024-01-30T02:34:57;20.23;;;10.35;;
51288;SDS011;37372;52.294;5.152;2024-01-30T02:37:26;19.63;;;10.07;;
51288;SDS011;37372;52.294;5.152;2024-01-30T02:39:51;17.90;;;10.17;;
51288;SDS011;37372;52.294;5.152;2024-01-30T02:42:17;21.40;;;10.27;;
51288;SDS011;37372;52.294;5.152;2024-01-30T02:44:52;20.58;;;10.38;;
51288;SDS011;37372;52.294;5.152;2024-01-30T02:47:29;17.00;;;10.07;;
51288;SDS011;37372;52.294;5.152;2024-01-30T02:50:10;17.92;;;10.32;;
51288;SDS011;37372;52.294;5.152;2024-01-30T02:52:46;16.70;;;9.47;;
51288;SDS011;37372;52.294;5.152;2024-01-30T02:55:11;18.60;;;9.90;;
51288;SDS011;37372;52.294;5.152;2024-01-30T02:57:43;18.80;;;10.60;;
51288;SDS011;37372;52.294;5.152;2024-01-30T03:00:09;18.00;;;10.38;;
51288;SDS011;37372;52.294;5.152;2024-01-30T03:02:44;19.10;;;10.23;;
51288;SDS011;37372;52.294;5.152;2024-01-30T03:05:52;17.83;;;9.77;;
51288;SDS011;37372;52.294;5.152;2024-01-30T03:08:18;19.75;;;10.32;;
51288;SDS011;37372;52.294;5.152;2024-01-30T03:10:47;17.92;;;9.88;;
51288;SDS011;37372;52.294;5.152;2024-01-30T03:13:13;17.07;;;9.67;;
51288;SDS011;37372;52.294;5.152;2024-01-30T03:16:09;20.65;;;10.45;;
51288;SDS011;37372;52.294;5.152;2024-01-30T03:18:38;17.10;;;9.93;;
51288;SDS011;37372;52.294;5.152;2024-01-30T03:21:03;18.20;;;10.18;;
51288;SDS011;37372;52.294;5.152;2024-01-30T03:23:34;17.93;;;10.47;;
51288;SDS011;37372;52.294;5.152;2024-01-30T03:26:03;18.45;;;10.15;;
51288;SDS011;37372;52.294;5.152;2024-01-30T03:28:31;20.95;;;10.25;;
51288;SDS011;37372;52.294;5.152;2024-01-30T03:30:57;18.13;;;10.03;;
51288;SDS011;37372;52.294;5.152;2024-01-30T03:36:21;18.48;;;9.57;;
51288;SDS011;37372;52.294;5.152;2024-01-30T03:38:59;20.03;;;10.10;;
51288;SDS011;37372;52.294;5.152;2024-01-30T03:41:31;17.25;;;10.00;;
51288;SDS011;37372;52.294;5.152;2024-01-30T03:44:06;17.58;;;9.75;;
51288;SDS011;37372;52.294;5.152;2024-01-30T03:46:35;17.20;;;9.60;;
51288;SDS011;37372;52.294;5.152;2024-01-30T03:49:21;16.50;;;9.80;;
51288;SDS011;37372;52.294;5.152;2024-01-30T03:51:47;16.10;;;9.68;;
51288;SDS011;37372;52.294;5.152;2024-01-30T03:54:15;17.27;;;9.40;;
51288;SDS011;37372;52.294;5.152;2024-01-30T03:56:44;18.08;;;9.73;;
51288;SDS011;37372;52.294;5.152;2024-01-30T03:59:10;17.90;;;10.20;;
51288;SDS011;37372;52.294;5.152;2024-01-30T04:04:51;17.10;;;9.30;;
51288;SDS011;37372;52.294;5.152;2024-01-30T04:07:26;19.37;;;9.80;;
51288;SDS011;37372;52.294;5.152;2024-01-30T04:10:12;16.98;;;9.63;;
51288;SDS011;37372;52.294;5.152;2024-01-30T04:12:42;18.33;;;9.50;;
51288;SDS011;37372;52.294;5.152;2024-01-30T04:15:11;19.90;;;9.40;;
51288;SDS011;37372;52.294;5.152;2024-01-30T04:17:50;17.40;;;10.10;;
51288;SDS011;37372;52.294;5.152;2024-01-30T04:20:20;16.20;;;9.15;;
51288;SDS011;37372;52.294;5.152;2024-01-30T04:22:46;16.17;;;9.67;;
51288;SDS011;37372;52.294;5.152;2024-01-30T04:25:12;19.77;;;10.43;;
51288;SDS011;37372;52.294;5.152;2024-01-30T04:27:39;19.88;;;10.05;;
51288;SDS011;37372;52.294;5.152;2024-01-30T04:30:24;18.53;;;9.57;;
51288;SDS011;37372;52.294;5.152;2024-01-30T04:33:07;17.00;;;9.65;;
51288;SDS011;37372;52.294;5.152;2024-01-30T04:35:46;19.13;;;9.57;;
51288;SDS011;37372;52.294;5.152;2024-01-30T04:38:12;21.17;;;9.67;;
51288;SDS011;37372;52.294;5.152;2024-01-30T04:40:39;16.80;;;9.65;;
51288;SDS011;37372;52.294;5.152;2024-01-30T04:43:04;16.07;;;8.90;;
51288;SDS011;37372;52.294;5.152;2024-01-30T04:45:31;16.57;;;8.97;;
51288;SDS011;37372;52.294;5.152;2024-01-30T04:47:56;19.85;;;9.57;;
51288;SDS011;37372;52.294;5.152;2024-01-30T04:50:26;19.52;;;9.63;;
51288;SDS011;37372;52.294;5.152;2024-01-30T04:52:57;17.17;;;9.90;;
51288;SDS011;37372;52.294;5.152;2024-01-30T04:55:33;18.45;;;9.68;;
51288;SDS011;37372;52.294;5.152;2024-01-30T04:58:02;17.93;;;10.13;;
51288;SDS011;37372;52.294;5.152;2024-01-30T05:00:28;19.55;;;9.90;;
51288;SDS011;37372;52.294;5.152;2024-01-30T05:02:55;19.50;;;9.90;;
51288;SDS011;37372;52.294;5.152;2024-01-30T05:05:30;18.75;;;10.10;;
51288;SDS011;37372;52.294;5.152;2024-01-30T05:08:33;19.67;;;9.27;;
51288;SDS011;37372;52.294;5.152;2024-01-30T05:11:18;18.33;;;9.70;;
51288;SDS011;37372;52.294;5.152;2024-01-30T05:13:44;18.67;;;10.02;;
51288;SDS011;37372;52.294;5.152;2024-01-30T05:16:15;17.70;;;9.40;;
51288;SDS011;37372;52.294;5.152;2024-01-30T05:18:47;18.57;;;10.00;;
51288;SDS011;37372;52.294;5.152;2024-01-30T05:21:34;17.03;;;9.33;;
51288;SDS011;37372;52.294;5.152;2024-01-30T05:30:16;18.80;;;9.45;;
51288;SDS011;37372;52.294;5.152;2024-01-30T05:33:02;18.73;;;9.60;;
51288;SDS011;37372;52.294;5.152;2024-01-30T05:35:37;17.70;;;9.18;;
51288;SDS011;37372;52.294;5.152;2024-01-30T05:38:26;20.33;;;10.13;;
51288;SDS011;37372;52.294;5.152;2024-01-30T05:41:15;19.73;;;9.80;;
51288;SDS011;37372;52.294;5.152;2024-01-30T05:44:09;18.27;;;10.35;;
51288;SDS011;37372;52.294;5.152;2024-01-30T05:46:53;19.42;;;9.95;;
51288;SDS011;37372;52.294;5.152;2024-01-30T05:52:59;17.05;;;9.60;;
51288;SDS011;37372;52.294;5.152;2024-01-30T05:55:34;18.40;;;9.00;;
51288;SDS011;37372;52.294;5.152;2024-01-30T05:58:06;18.38;;;10.13;;
51288;SDS011;37372;52.294;5.152;2024-01-30T06:00:31;18.23;;;9.27;;
51288;SDS011;37372;52.294;5.152;2024-01-30T06:02:57;18.90;;;10.60;;
51288;SDS011;37372;52.294;5.152;2024-01-30T06:05:25;18.20;;;10.05;;
51288;SDS011;37372;52.294;5.152;2024-01-30T06:08:27;15.32;;;9.15;;
51288;SDS011;37372;52.294;5.152;2024-01-30T06:10:59;18.02;;;10.25;;
51288;SDS011;37372;52.294;5.152;2024-01-30T06:13:28;20.95;;;10.35;;
51288;SDS011;37372;52.294;5.152;2024-01-30T06:16:20;19.07;;;10.20;;
51288;SDS011;37372;52.294;5.152;2024-01-30T06:18:49;18.23;;;9.75;;
51288;SDS011;37372;52.294;5.152;2024-01-30T06:21:48;18.08;;;9.90;;
51288;SDS011;37372;52.294;5.152;2024-01-30T06:24:13;19.10;;;10.07;;
51288;SDS011;37372;52.294;5.152;2024-01-30T06:26:44;18.90;;;9.40;;
51288;SDS011;37372;52.294;5.152;2024-01-30T06:29:12;14.23;;;8.53;;
51288;SDS011;37372;52.294;5.152;2024-01-30T06:31:59;21.10;;;9.55;;
51288;SDS011;37372;52.294;5.152;2024-01-30T06:34:45;20.38;;;9.93;;
51288;SDS011;37372;52.294;5.152;2024-01-30T06:37:14;16.20;;;9.30;;
51288;SDS011;37372;52.294;5.152;2024-01-30T06:39:46;17.20;;;9.07;;
51288;SDS011;37372;52.294;5.152;2024-01-30T06:42:15;14.95;;;9.02;;
51288;SDS011;37372;52.294;5.152;2024-01-30T06:45:22;17.23;;;9.00;;
51288;SDS011;37372;52.294;5.152;2024-01-30T06:47:52;21.27;;;9.93;;
51288;SDS011;37372;52.294;5.152;2024-01-30T06:50:27;18.65;;;9.68;;
51288;SDS011;37372;52.294;5.152;2024-01-30T06:52:56;20.87;;;8.23;;
51288;SDS011;37372;52.294;5.152;2024-01-30T06:55:22;19.03;;;9.07;;
51288;SDS011;37372;52.294;5.152;2024-01-30T06:57:51;15.90;;;8.10;;
51288;SDS011;37372;52.294;5.152;2024-01-30T07:00:16;17.27;;;9.07;;
51288;SDS011;37372;52.294;5.152;2024-01-30T07:03:07;15.95;;;9.13;;
51288;SDS011;37372;52.294;5.152;2024-01-30T07:05:34;18.03;;;8.70;;
51288;SDS011;37372;52.294;5.152;2024-01-30T07:08:03;17.88;;;9.40;;
51288;SDS011;37372;52.294;5.152;2024-01-30T07:10:31;22.33;;;8.75;;
51288;SDS011;37372;52.294;5.152;2024-01-30T07:12:57;16.55;;;8.95;;
51288;SDS011;37372;52.294;5.152;2024-01-30T07:15:26;17.23;;;8.57;;
51288;SDS011;37372;52.294;5.152;2024-01-30T07:20:34;15.23;;;8.05;;
51288;SDS011;37372;52.294;5.152;2024-01-30T07:23:06;17.60;;;8.50;;
51288;SDS011;37372;52.294;5.152;2024-01-30T07:25:41;17.10;;;8.20;;
51288;SDS011;37372;52.294;5.152;2024-01-30T07:28:08;19.17;;;9.20;;
51288;SDS011;37372;52.294;5.152;2024-01-30T07:30:41;18.05;;;8.82;;
51288;SDS011;37372;52.294;5.152;2024-01-30T07:33:16;15.52;;;8.30;;
51288;SDS011;37372;52.294;5.152;2024-01-30T07:36:13;16.02;;;7.93;;
51288;SDS011;37372;52.294;5.152;2024-01-30T07:38:38;17.48;;;8.30;;
51288;SDS011;37372;52.294;5.152;2024-01-30T07:41:04;15.43;;;8.43;;
51288;SDS011;37372;52.294;5.152;2024-01-30T07:43:31;18.00;;;8.70;;
51288;SDS011;37372;52.294;5.152;2024-01-30T07:46:19;16.30;;;8.82;;
51288;SDS011;37372;52.294;5.152;2024-01-30T07:48:45;14.40;;;8.03;;
51288;SDS011;37372;52.294;5.152;2024-01-30T07:51:36;18.83;;;8.13;;
51288;SDS011;37372;52.294;5.152;2024-01-30T07:54:27;17.77;;;8.53;;
51288;SDS011;37372;52.294;5.152;2024-01-30T07:57:07;16.77;;;8.20;;
51288;SDS011;37372;52.294;5.152;2024-01-30T07:59:38;19.63;;;9.07;;
51288;SDS011;37372;52.294;5.152;2024-01-30T08:02:03;20.10;;;8.98;;
51288;SDS011;37372;52.294;5.152;2024-01-30T08:04:29;16.33;;;8.23;;
51288;SDS011;37372;52.294;5.152;2024-01-30T08:07:15;14.30;;;7.63;;
51288;SDS011;37372;52.294;5.152;2024-01-30T08:09:42;19.90;;;8.15;;
51288;SDS011;37372;52.294;5.152;2024-01-30T08:15:17;17.97;;;8.20;;
51288;SDS011;37372;52.294;5.152;2024-01-30T08:17:48;24.23;;;7.88;;
51288;SDS011;37372;52.294;5.152;2024-01-30T08:20:31;16.63;;;8.38;;
51288;SDS011;37372;52.294;5.152;2024-01-30T08:22:58;18.00;;;7.57;;
51288;SDS011;37372;52.294;5.152;2024-01-30T08:26:01;18.02;;;7.85;;
51288;SDS011;37372;52.294;5.152;2024-01-30T08:28:44;21.08;;;7.88;;
51288;SDS011;37372;52.294;5.152;2024-01-30T08:31:36;14.53;;;7.67;;
51288;SDS011;37372;52.294;5.152;2024-01-30T08:34:07;16.85;;;8.02;;
51288;SDS011;37372;52.294;5.152;2024-01-30T08:36:33;14.32;;;7.85;;
51288;SDS011;37372;52.294;5.152;2024-01-30T08:39:01;16.87;;;7.73;;
51288;SDS011;37372;52.294;5.152;2024-01-30T08:41:31;18.60;;;7.88;;
51288;SDS011;37372;52.294;5.152;2024-01-30T08:43:57;17.30;;;7.83;;
51288;SDS011;37372;52.294;5.152;2024-01-30T08:46:28;16.58;;;7.85;;
51288;SDS011;37372;52.294;5.152;2024-01-30T08:48:56;18.30;;;7.73;;
51288;SDS011;37372;52.294;5.152;2024-01-30T08:51:22;16.95;;;8.00;;
51288;SDS011;37372;52.294;5.152;2024-01-30T08:56:29;21.17;;;8.30;;
51288;SDS011;37372;52.294;5.152;2024-01-30T08:59:03;15.03;;;8.00;;
51288;SDS011;37372;52.294;5.152;2024-01-30T09:01:29;18.47;;;7.80;;
51288;SDS011;37372;52.294;5.152;2024-01-30T09:04:01;19.23;;;8.13;;
51288;SDS011;37372;52.294;5.152;2024-01-30T09:06:35;18.08;;;8.00;;
51288;SDS011;37372;52.294;5.152;2024-01-30T09:09:34;18.02;;;8.10;;
51288;SDS011;37372;52.294;5.152;2024-01-30T09:15:12;20.43;;;8.33;;
51288;SDS011;37372;52.294;5.152;2024-01-30T09:17:38;14.95;;;8.10;;
51288;SDS011;37372;52.294;5.152;2024-01-30T09:20:04;16.67;;;7.77;;
51288;SDS011;37372;52.294;5.152;2024-01-30T09:22:39;17.13;;;8.52;;
51288;SDS011;37372;52.294;5.152;2024-01-30T09:25:08;18.52;;;8.13;;
51288;SDS011;37372;52.294;5.152;2024-01-30T09:27:47;17.73;;;8.43;;
51288;SDS011;37372;52.294;5.152;2024-01-30T09:30:22;17.93;;;8.50;;
51288;SDS011;37372;52.294;5.152;2024-01-30T09:32:47;17.23;;;7.80;;
51288;SDS011;37372;52.294;5.152;2024-01-30T09:35:16;17.63;;;8.00;;
51288;SDS011;37372;52.294;5.152;2024-01-30T09:40:33;17.58;;;8.43;;
51288;SDS011;37372;52.294;5.152;2024-01-30T09:43:02;16.47;;;8.23;;
51288;SDS011;37372;52.294;5.152;2024-01-30T09:48:23;15.00;;;8.65;;
51288;SDS011;37372;52.294;5.152;2024-01-30T09:51:09;17.98;;;8.60;;
51288;SDS011;37372;52.294;5.152;2024-01-30T09:53:36;19.77;;;8.23;;
51288;SDS011;37372;52.294;5.152;2024-01-30T09:56:08;18.23;;;8.53;;
51288;SDS011;37372;52.294;5.152;2024-01-30T09:58:36;15.88;;;8.30;;
51288;SDS011;37372;52.294;5.152;2024-01-30T10:01:12;16.43;;;7.70;;
51288;SDS011;37372;52.294;5.152;2024-01-30T10:03:43;21.08;;;8.43;;
51288;SDS011;37372;52.294;5.152;2024-01-30T10:06:09;16.27;;;8.13;;
51288;SDS011;37372;52.294;5.152;2024-01-30T10:08:41;16.15;;;8.40;;
51288;SDS011;37372;52.294;5.152;2024-01-30T10:11:10;19.80;;;8.10;;
51288;SDS011;37372;52.294;5.152;2024-01-30T10:13:42;14.93;;;7.63;;
51288;SDS011;37372;52.294;5.152;2024-01-30T10:16:10;15.68;;;7.22;;
51288;SDS011;37372;52.294;5.152;2024-01-30T10:18:52;14.30;;;5.90;;
51288;SDS011;37372;52.294;5.152;2024-01-30T10:21:26;15.93;;;5.80;;
51288;SDS011;37372;52.294;5.152;2024-01-30T10:24:14;10.05;;;5.63;;
51288;SDS011;37372;52.294;5.152;2024-01-30T10:26:39;8.30;;;5.00;;
51288;SDS011;37372;52.294;5.152;2024-01-30T10:29:08;8.57;;;5.20;;
51288;SDS011;37372;52.294;5.152;2024-01-30T10:31:33;10.18;;;5.20;;
51288;SDS011;37372;52.294;5.152;2024-01-30T10:34:03;10.55;;;5.22;;
51288;SDS011;37372;52.294;5.152;2024-01-30T10:36:28;13.50;;;5.88;;
51288;SDS011;37372;52.294;5.152;2024-01-30T10:39:12;12.60;;;5.70;;
51288;SDS011;37372;52.294;5.152;2024-01-30T10:42:04;14.85;;;6.30;;
51288;SDS011;37372;52.294;5.152;2024-01-30T10:47:57;11.15;;;4.65;;
51288;SDS011;37372;52.294;5.152;2024-01-30T10:50:28;11.43;;;4.07;;
51288;SDS011;37372;52.294;5.152;2024-01-30T10:53:05;14.50;;;4.47;;
51288;SDS011;37372;52.294;5.152;2024-01-30T10:55:34;9.57;;;3.55;;
51288;SDS011;37372;52.294;5.152;2024-01-30T10:58:03;9.88;;;3.58;;
51288;SDS011;37372;52.294;5.152;2024-01-30T11:00:36;10.13;;;3.15;;
51288;SDS011;37372;52.294;5.152;2024-01-30T11:03:13;8.73;;;3.08;;
51288;SDS011;37372;52.294;5.152;2024-01-30T11:05:40;7.87;;;3.20;;
51288;SDS011;37372;52.294;5.152;2024-01-30T11:08:24;7.88;;;2.97;;
51288;SDS011;37372;52.294;5.152;2024-01-30T11:11:01;11.35;;;3.20;;
51288;SDS011;37372;52.294;5.152;2024-01-30T11:13:37;6.00;;;2.80;;
51288;SDS011;37372;52.294;5.152;2024-01-30T11:16:14;5.07;;;2.70;;
51288;SDS011;37372;52.294;5.152;2024-01-30T11:18:39;6.30;;;2.80;;
51288;SDS011;37372;52.294;5.152;2024-01-30T11:21:31;9.02;;;2.75;;
51288;SDS011;37372;52.294;5.152;2024-01-30T11:24:02;8.30;;;3.00;;
51288;SDS011;37372;52.294;5.152;2024-01-30T11:26:32;6.82;;;2.85;;
51288;SDS011;37372;52.294;5.152;2024-01-30T11:28:58;9.13;;;3.33;;
51288;SDS011;37372;52.294;5.152;2024-01-30T11:31:32;8.00;;;3.25;;
51288;SDS011;37372;52.294;5.152;2024-01-30T11:34:05;8.15;;;2.50;;
51288;SDS011;37372;52.294;5.152;2024-01-30T11:36:43;6.88;;;2.90;;
51288;SDS011;37372;52.294;5.152;2024-01-30T11:39:22;5.67;;;2.63;;
51288;SDS011;37372;52.294;5.152;2024-01-30T11:41:50;6.40;;;2.33;;
51288;SDS011;37372;52.294;5.152;2024-01-30T11:44:17;8.20;;;2.20;;
51288;SDS011;37372;52.294;5.152;2024-01-30T11:46:45;5.50;;;2.17;;
51288;SDS011;37372;52.294;5.152;2024-01-30T11:49:12;4.28;;;1.80;;
51288;SDS011;37372;52.294;5.152;2024-01-30T11:51:53;5.70;;;2.03;;
51288;SDS011;37372;52.294;5.152;2024-01-30T11:54:21;6.00;;;1.70;;
51288;SDS011;37372;52.294;5.152;2024-01-30T11:56:50;2.88;;;1.40;;
51288;SDS011;37372;52.294;5.152;2024-01-30T11:59:28;4.15;;;1.38;;
51288;SDS011;37372;52.294;5.152;2024-01-30T12:02:00;4.20;;;1.58;;
51288;SDS011;37372;52.294;5.152;2024-01-30T12:05:18;3.93;;;1.90;;
51288;SDS011;37372;52.294;5.152;2024-01-30T12:07:51;8.02;;;2.70;;
51288;SDS011;37372;52.294;5.152;2024-01-30T12:10:16;8.50;;;2.33;;
51288;SDS011;37372;52.294;5.152;2024-01-30T12:12:46;7.50;;;2.55;;
51288;SDS011;37372;52.294;5.152;2024-01-30T12:15:13;6.50;;;2.15;;
51288;SDS011;37372;52.294;5.152;2024-01-30T12:17:40;8.93;;;2.10;;
51288;SDS011;37372;52.294;5.152;2024-01-30T12:20:10;7.95;;;1.77;;
51288;SDS011;37372;52.294;5.152;2024-01-30T12:22:43;8.33;;;1.77;;
51288;SDS011;37372;52.294;5.152;2024-01-30T12:25:13;8.45;;;1.35;;
51288;SDS011;37372;52.294;5.152;2024-01-30T12:30:55;8.98;;;1.63;;
51288;SDS011;37372;52.294;5.152;2024-01-30T12:36:59;7.93;;;1.57;;
51288;SDS011;37372;52.294;5.152;2024-01-30T12:39:37;9.70;;;1.67;;
51288;SDS011;37372;52.294;5.152;2024-01-30T12:42:18;8.25;;;1.63;;
51288;SDS011;37372;52.294;5.152;2024-01-30T12:44:45;6.88;;;1.50;;
51288;SDS011;37372;52.294;5.152;2024-01-30T12:47:14;4.90;;;1.50;;
51288;SDS011;37372;52.294;5.152;2024-01-30T12:49:44;4.57;;;1.42;;
51288;SDS011;37372;52.294;5.152;2024-01-30T12:52:16;6.97;;;1.60;;
51288;SDS011;37372;52.294;5.152;2024-01-30T12:54:46;6.73;;;1.60;;
51288;SDS011;37372;52.294;5.152;2024-01-30T12:57:11;4.78;;;1.60;;
51288;SDS011;37372;52.294;5.152;2024-01-30T12:59:37;6.40;;;1.90;;
51288;SDS011;37372;52.294;5.152;2024-01-30T13:02:04;7.93;;;2.08;;
51288;SDS011;37372;52.294;5.152;2024-01-30T13:05:09;7.90;;;2.77;;
51288;SDS011;37372;52.294;5.152;2024-01-30T13:08:01;8.48;;;2.10;;
51288;SDS011;37372;52.294;5.152;2024-01-30T13:13:48;6.47;;;2.20;;
51288;SDS011;37372;52.294;5.152;2024-01-30T13:23:02;2.70;;;1.90;;
51288;SDS011;37372;52.294;5.152;2024-01-30T13:28:46;5.73;;;1.97;;
51288;SDS011;37372;52.294;5.152;2024-01-30T13:31:30;6.15;;;2.25;;
51288;SDS011;37372;52.294;5.152;2024-01-30T13:37:22;6.93;;;3.10;;
51288;SDS011;37372;52.294;5.152;2024-01-30T13:40:21;6.05;;;2.88;;
51288;SDS011;37372;52.294;5.152;2024-01-30T13:45:48;9.30;;;2.90;;
51288;SDS011;37372;52.294;5.152;2024-01-30T13:48:15;8.18;;;3.10;;
51288;SDS011;37372;52.294;5.152;2024-01-30T13:50:55;8.88;;;3.17;;
51288;SDS011;37372;52.294;5.152;2024-01-30T13:53:22;8.60;;;3.10;;
51288;SDS011;37372;52.294;5.152;2024-01-30T13:56:15;8.40;;;3.78;;
51288;SDS011;37372;52.294;5.152;2024-01-30T13:58:41;7.47;;;3.37;;
51288;SDS011;37372;52.294;5.152;2024-01-30T14:02:54;9.35;;;3.03;;
51288;SDS011;37372;52.294;5.152;2024-01-30T14:05:53;5.28;;;3.33;;
51288;SDS011;37372;52.294;5.152;2024-01-30T14:08:38;8.30;;;3.60;;
51288;SDS011;37372;52.294;5.152;2024-01-30T14:11:06;5.90;;;3.10;;
51288;SDS011;37372;52.294;5.152;2024-01-30T14:16:52;6.20;;;3.30;;
51288;SDS011;37372;52.294;5.152;2024-01-30T14:20:44;5.93;;;2.90;;
51288;SDS011;37372;52.294;5.152;2024-01-30T14:22:47;5.05;;;3.10;;
51288;SDS011;37372;52.294;5.152;2024-01-30T14:25:20;6.07;;;3.50;;
51288;SDS011;37372;52.294;5.152;2024-01-30T14:27:54;4.57;;;3.40;;
51288;SDS011;37372;52.294;5.152;2024-01-30T14:33:20;8.23;;;3.38;;
51288;SDS011;37372;52.294;5.152;2024-01-30T14:35:48;5.43;;;3.30;;
51288;SDS011;37372;52.294;5.152;2024-01-30T14:38:14;5.60;;;3.00;;
51288;SDS011;37372;52.294;5.152;2024-01-30T14:41:22;5.10;;;3.40;;
51288;SDS011;37372;52.294;5.152;2024-01-30T14:47:20;6.82;;;3.22;;
51288;SDS011;37372;52.294;5.152;2024-01-30T14:50:31;4.35;;;3.30;;
51288;SDS011;37372;52.294;5.152;2024-01-30T14:53:04;8.73;;;3.40;;
51288;SDS011;37372;52.294;5.152;2024-01-30T14:56:08;5.40;;;3.60;;
51288;SDS011;37372;52.294;5.152;2024-01-30T14:58:48;6.10;;;3.73;;
51288;SDS011;37372;52.294;5.152;2024-01-30T15:01:18;6.07;;;3.85;;
51288;SDS011;37372;52.294;5.152;2024-01-30T15:03:51;6.82;;;4.38;;
51288;SDS011;37372;52.294;5.152;2024-01-30T15:06:17;9.80;;;4.80;;
51288;SDS011;37372;52.294;5.152;2024-01-30T15:09:16;7.20;;;4.53;;
51288;SDS011;37372;52.294;5.152;2024-01-30T15:15:40;10.80;;;5.40;;
51288;SDS011;37372;52.294;5.152;2024-01-30T15:18:41;8.73;;;5.70;;
51288;SDS011;37372;52.294;5.152;2024-01-30T15:21:10;9.88;;;6.05;;
51288;SDS011;37372;52.294;5.152;2024-01-30T15:23:55;9.70;;;5.97;;
51288;SDS011;37372;52.294;5.152;2024-01-30T15:26:23;10.20;;;5.70;;
51288;SDS011;37372;52.294;5.152;2024-01-30T15:29:01;11.00;;;5.72;;
51288;SDS011;37372;52.294;5.152;2024-01-30T15:31:32;10.30;;;5.50;;
51288;SDS011;37372;52.294;5.152;2024-01-30T15:34:16;8.05;;;5.05;;
51288;SDS011;37372;52.294;5.152;2024-01-30T15:36:42;8.27;;;4.90;;
51288;SDS011;37372;52.294;5.152;2024-01-30T15:39:07;6.80;;;4.50;;
51288;SDS011;37372;52.294;5.152;2024-01-30T15:41:40;8.00;;;4.50;;
51288;SDS011;37372;52.294;5.152;2024-01-30T15:44:24;10.47;;;5.20;;
51288;SDS011;37372;52.294;5.152;2024-01-30T15:47:24;6.85;;;4.30;;
51288;SDS011;37372;52.294;5.152;2024-01-30T15:49:59;6.65;;;3.78;;
51288;SDS011;37372;52.294;5.152;2024-01-30T15:52:25;5.85;;;3.60;;
51288;SDS011;37372;52.294;5.152;2024-01-30T15:54:57;7.47;;;3.37;;
51288;SDS011;37372;52.294;5.152;2024-01-30T15:57:47;7.43;;;2.92;;
51288;SDS011;37372;52.294;5.152;2024-01-30T16:00:30;8.30;;;2.93;;
51288;SDS011;37372;52.294;5.152;2024-01-30T16:03:15;5.72;;;2.63;;
51288;SDS011;37372;52.294;5.152;2024-01-30T16:06:03;5.03;;;2.20;;
51288;SDS011;37372;52.294;5.152;2024-01-30T16:11:48;5.82;;;2.72;;
51288;SDS011;37372;52.294;5.152;2024-01-30T16:14:15;8.50;;;2.97;;
51288;SDS011;37372;52.294;5.152;2024-01-30T16:16:40;10.63;;;2.97;;
51288;SDS011;37372;52.294;5.152;2024-01-30T16:19:10;9.53;;;2.90;;
51288;SDS011;37372;52.294;5.152;2024-01-30T16:22:09;8.63;;;2.92;;
51288;SDS011;37372;52.294;5.152;2024-01-30T16:27:52;10.25;;;2.50;;
51288;SDS011;37372;52.294;5.152;2024-01-30T16:30:17;11.23;;;3.05;;
51288;SDS011;37372;52.294;5.152;2024-01-30T16:33:03;9.63;;;2.90;;
51288;SDS011;37372;52.294;5.152;2024-01-30T16:35:29;9.35;;;2.97;;
51288;SDS011;37372;52.294;5.152;2024-01-30T16:38:02;11.47;;;3.10;;
51288;SDS011;37372;52.294;5.152;2024-01-30T16:40:34;10.75;;;2.92;;